Time;durP1;ratioP1;P1;durP2;ratioP2;P2;SDS_P1;SDS_P2;PMS_P1;PMS_P2;Temp;Humidity;BMP_temperature;BMP_pressure;BME280_temperature;BME280_humidity;BME280_pressure;Samples;Min_cycle;Max_cycle;Signal;HPM_P1;HPM_P2
2023/09/13 00:00:38;;;;;;;11.57;7.22;;;;;;;21.96;51.60;97374.16;10460910;28;20125;-62
2023/09/13 00:06:09;;;;;;;8.70;6.68;;;;;;;21.91;52.01;97376.22;10462902;28;20059;-62
2023/09/13 00:11:29;;;;;;;10.27;7.25;;;;;;;21.87;52.38;97378.28;10463084;28;20072;-62
2023/09/13 00:16:50;;;;;;;11.13;7.18;;;;;;;21.78;52.45;97382.38;10462735;28;20521;-62
2023/09/13 00:22:12;;;;;;;14.13;6.93;;;;;;;21.71;52.83;97378.69;10462799;28;20119;-62
2023/09/13 00:27:33;;;;;;;9.73;6.80;;;;;;;21.63;52.83;97375.72;10462245;28;20502;-62
2023/09/13 00:32:54;;;;;;;11.23;7.00;;;;;;;21.60;52.71;97379.91;10447224;28;20121;-62
2023/09/13 00:38:15;;;;;;;10.07;7.07;;;;;;;21.52;52.91;97380.50;10462121;28;20128;-62
2023/09/13 00:43:36;;;;;;;10.38;7.10;;;;;;;21.42;53.58;97374.59;10461741;28;20132;-62
2023/09/13 00:48:57;;;;;;;7.70;6.60;;;;;;;21.40;54.06;97375.28;10461618;28;20065;-62
2023/09/13 00:54:18;;;;;;;10.68;6.55;;;;;;;21.31;53.85;97376.53;10461250;28;20073;-62
2023/09/13 00:59:38;;;;;;;8.45;6.80;;;;;;;21.30;53.93;97374.38;10432392;28;20124;-62
2023/09/13 01:04:59;;;;;;;8.40;6.85;;;;;;;21.25;54.19;97373.56;10460595;28;20069;-62
2023/09/13 01:10:20;;;;;;;7.75;6.57;;;;;;;21.21;54.68;97382.00;10430503;28;20128;-62
2023/09/13 01:16:14;;;;;;;8.93;6.88;;;;;;;21.19;54.69;97389.75;10445690;28;20119;-62
2023/09/13 01:22:09;;;;;;;9.70;7.10;;;;;;;21.13;54.89;97376.88;10434512;28;20140;-62
2023/09/13 01:27:53;;;;;;;8.10;7.00;;;;;;;21.14;54.54;97388.97;10445201;28;20127;-62
2023/09/13 01:33:14;;;;;;;7.68;6.82;;;;;;;21.13;54.87;97385.41;10445642;28;20133;-62
2023/09/13 01:38:35;;;;;;;8.25;7.20;;;;;;;21.13;55.24;97376.16;10459618;28;20036;-62
2023/09/13 01:43:55;;;;;;;8.77;7.15;;;;;;;21.10;55.00;97371.84;10430546;28;20126;-62
2023/09/13 01:49:18;;;;;;;10.45;7.10;;;;;;;21.09;55.33;97376.06;10430588;28;20171;-62
2023/09/13 01:54:39;;;;;;;9.48;7.25;;;;;;;21.08;55.34;97377.47;10458982;28;20129;-62
2023/09/13 02:00:00;;;;;;;9.05;6.97;;;;;;;21.06;55.59;97377.44;10458870;28;20076;-62
2023/09/13 02:05:20;;;;;;;8.88;6.65;;;;;;;21.02;55.44;97369.53;10458436;28;20087;-62
2023/09/13 02:10:41;;;;;;;11.00;6.72;;;;;;;21.02;55.63;97369.53;10458265;28;20041;-62
2023/09/13 02:16:02;;;;;;;8.77;6.43;;;;;;;21.02;55.85;97369.53;10458171;28;20543;-62
2023/09/13 02:21:23;;;;;;;10.40;6.47;;;;;;;20.96;55.82;97368.72;10442848;28;20128;-62
2023/09/13 02:26:44;;;;;;;8.85;6.80;;;;;;;20.92;55.64;97374.28;10458034;28;20049;-62
2023/09/13 02:32:04;;;;;;;9.35;6.65;;;;;;;20.87;56.29;97376.34;10457478;28;20123;-62
2023/09/13 02:37:27;;;;;;;10.13;6.38;;;;;;;20.84;55.91;97381.25;10442413;28;20049;-63
2023/09/13 02:42:48;;;;;;;10.52;6.80;;;;;;;20.85;56.22;97393.31;10457243;28;20120;-62
2023/09/13 02:48:09;;;;;;;9.35;6.50;;;;;;;20.85;56.31;97393.31;10456970;28;20479;-62
2023/09/13 02:53:31;;;;;;;12.65;6.68;;;;;;;20.90;56.50;97388.44;10428294;28;20120;-62
2023/09/13 02:58:51;;;;;;;10.07;6.18;;;;;;;20.94;56.78;97383.59;10456678;28;20163;-62
2023/09/13 03:04:12;;;;;;;6.82;6.13;;;;;;;21.01;56.59;97385.13;10441488;28;20128;-62
2023/09/13 03:09:32;;;;;;;9.82;6.80;;;;;;;20.99;56.99;97390.78;10441294;28;20085;-62
2023/09/13 03:14:56;;;;;;;9.07;6.93;;;;;;;20.96;56.97;97385.75;10441575;28;20125;-62
2023/09/13 03:20:17;;;;;;;11.60;7.55;;;;;;;20.81;57.15;97374.06;10441223;28;20444;-63
2023/09/13 03:25:38;;;;;;;9.02;7.32;;;;;;;20.69;57.12;97375.94;10441362;28;20079;-62
2023/09/13 03:30:59;;;;;;;8.68;7.78;;;;;;;20.62;57.38;97366.56;10440934;28;20465;-63
2023/09/13 03:36:20;;;;;;;13.90;8.38;;;;;;;20.48;58.21;97357.75;10462683;28;20095;-62
2023/09/13 03:41:45;;;;;;;13.20;8.30;;;;;;;20.33;58.59;97364.47;10449352;28;20123;-62
2023/09/13 03:47:06;;;;;;;10.00;8.02;;;;;;;20.22;59.03;97361.38;10448756;28;20141;-62
2023/09/13 03:52:28;;;;;;;9.15;7.50;;;;;;;20.15;59.37;97344.91;10448559;28;20167;-62
2023/09/13 03:57:49;;;;;;;9.68;8.25;;;;;;;20.17;60.00;97342.13;10463478;28;20471;-62
2023/09/13 04:03:11;;;;;;;13.25;8.13;;;;;;;20.14;60.14;97344.19;10462413;28;20549;-62
2023/09/13 04:08:32;;;;;;;15.45;8.45;;;;;;;20.18;60.48;97347.13;10445524;28;20483;-62
2023/09/13 04:13:52;;;;;;;9.07;7.10;;;;;;;20.15;60.34;97344.91;10445440;28;20120;-62
2023/09/13 04:19:13;;;;;;;12.07;7.35;;;;;;;20.15;60.48;97348.47;10460099;28;20116;-63
2023/09/13 04:24:34;;;;;;;8.82;7.43;;;;;;;20.16;60.67;97344.22;10459836;28;20107;-62
2023/09/13 04:29:55;;;;;;;9.68;7.68;;;;;;;20.21;60.84;97342.94;10459840;28;20122;-63
2023/09/13 04:35:15;;;;;;;10.63;7.82;;;;;;;20.26;60.57;97352.25;10444572;28;20064;-62
2023/09/13 04:40:41;;;;;;;9.52;7.38;;;;;;;20.32;61.05;97360.19;10459627;28;20143;-63
2023/09/13 04:46:02;;;;;;;9.75;7.28;;;;;;;20.42;61.15;97374.59;10458203;28;20057;-62
2023/09/13 04:51:23;;;;;;;9.18;8.02;;;;;;;20.54;61.11;97381.28;10443924;28;20077;-62
2023/09/13 04:56:44;;;;;;;8.63;7.47;;;;;;;20.75;60.82;97393.81;10459115;28;20079;-62
2023/09/13 05:02:23;;;;;;;8.32;7.43;;;;;;;21.02;60.69;97388.69;10443487;28;20048;-62
2023/09/13 05:07:46;;;;;;;14.82;7.82;;;;;;;21.47;60.61;97378.25;10419278;28;20048;-62
2023/09/13 05:13:08;;;;;;;12.55;8.30;;;;;;;22.65;59.94;97388.78;10419076;28;20509;-62
2023/09/13 05:18:29;;;;;;;10.40;7.88;;;;;;;25.57;55.63;97407.09;10419024;28;20124;-62
2023/09/13 05:23:49;;;;;;;10.82;7.10;;;;;;;27.80;51.52;97402.59;10403981;28;20085;-63
2023/09/13 05:29:10;;;;;;;12.55;7.20;;;;;;;29.63;48.36;97410.22;10418594;28;20120;-63
2023/09/13 05:34:31;;;;;;;13.23;7.63;;;;;;;27.52;46.23;97401.25;10418159;28;20514;-63
2023/09/13 05:39:52;;;;;;;8.32;6.90;;;;;;;25.94;49.11;97399.34;10417931;28;20136;-63
2023/09/13 05:45:13;;;;;;;15.15;7.53;;;;;;;26.81;47.01;97404.34;10418132;28;20112;-63
2023/09/13 05:50:33;;;;;;;9.32;7.90;;;;;;;27.64;45.47;97414.81;10417584;28;20116;-62
2023/09/13 05:55:54;;;;;;;10.85;7.45;;;;;;;32.25;42.78;97414.81;10387986;28;20176;-63
2023/09/13 06:01:15;;;;;;;11.45;7.18;;;;;;;32.62;38.03;97418.25;10417229;28;20129;-63
2023/09/13 06:06:36;;;;;;;12.17;6.87;;;;;;;29.44;39.51;97417.63;10453813;28;20077;-63
2023/09/13 06:11:57;;;;;;;10.50;7.43;;;;;;;27.67;41.59;97413.38;10457983;28;20131;-63
2023/09/13 06:17:18;;;;;;;10.13;7.22;;;;;;;27.13;42.33;97417.19;10457579;28;20128;-63
2023/09/13 06:22:38;;;;;;;10.70;6.68;;;;;;;32.79;41.04;97406.25;10457485;28;20547;-63
2023/09/13 06:27:59;;;;;;;12.70;7.20;;;;;;;40.75;29.69;97428.13;10457355;28;20124;-63
2023/09/13 06:33:20;;;;;;;7.60;5.57;;;;;;;41.99;23.82;97417.63;10457272;28;20069;-66
2023/09/13 06:39:02;;;;;;;6.47;5.78;;;;;;;39.95;23.24;97415.06;10456483;28;20144;-66
2023/09/13 06:44:22;;;;;;;9.80;5.95;;;;;;;35.87;26.20;97418.13;10456740;28;20087;-66
2023/09/13 06:50:04;;;;;;;12.20;5.70;;;;;;;33.73;28.80;97419.56;10456719;28;20494;-63
2023/09/13 06:55:26;;;;;;;10.48;6.15;;;;;;;31.79;30.39;97438.22;10457072;28;20064;-63
2023/09/13 07:00:48;;;;;;;10.68;6.70;;;;;;;30.61;32.83;97434.66;10456555;28;20136;-63
2023/09/13 07:06:29;;;;;;;9.35;6.03;;;;;;;34.10;32.27;97456.09;10456220;28;20079;-63
2023/09/13 07:11:50;;;;;;;6.45;5.30;;;;;;;40.29;27.26;97461.44;10455739;28;20402;-66
2023/09/13 07:17:11;;;;;;;7.47;5.13;;;;;;;44.76;19.11;97478.50;10456492;28;20059;-67
2023/09/13 07:22:32;;;;;;;6.22;4.70;;;;;;;47.98;17.09;97475.31;10456418;28;20152;-67
2023/09/13 07:27:53;;;;;;;6.65;4.60;;;;;;;49.51;13.24;97479.78;10455993;28;20053;-67
2023/09/13 07:33:14;;;;;;;7.80;4.32;;;;;;;41.44;18.54;97473.78;10441026;28;20079;-67
2023/09/13 07:38:37;;;;;;;5.75;4.70;;;;;;;39.27;20.86;97477.88;10455867;28;20487;-66
2023/09/13 07:43:58;;;;;;;7.70;5.20;;;;;;;35.59;24.79;97463.44;10455764;28;20183;-66
2023/09/13 07:49:19;;;;;;;6.32;5.40;;;;;;;35.00;27.37;97471.31;10455649;28;20513;-66
2023/09/13 07:54:40;;;;;;;8.90;5.35;;;;;;;36.20;25.81;97480.78;10455271;28;20519;-66
2023/09/13 08:00:01;;;;;;;9.63;5.68;;;;;;;36.46;24.98;97479.75;10455538;28;20068;-66
2023/09/13 08:05:31;;;;;;;9.63;5.20;;;;;;;36.74;26.94;97483.69;10455330;28;20073;-66
2023/09/13 08:10:52;;;;;;;8.00;4.97;;;;;;;38.32;23.53;97492.78;10426846;28;20060;-66
2023/09/13 08:16:12;;;;;;;8.55;5.50;;;;;;;35.80;25.17;97501.81;10455297;28;20098;-65
2023/09/13 08:21:33;;;;;;;7.82;5.13;;;;;;;36.99;26.51;97503.75;10444975;28;20483;-66
2023/09/13 08:26:54;;;;;;;7.35;4.95;;;;;;;41.50;22.45;97510.78;10462305;28;20052;-66
2023/09/13 08:32:15;;;;;;;5.53;4.60;;;;;;;49.10;15.25;97509.56;10461942;28;20183;-67
2023/09/13 08:37:36;;;;;;;7.97;3.80;;;;;;;51.50;11.86;97524.75;10461996;28;20073;-68
2023/09/13 08:42:56;;;;;;;7.93;3.50;;;;;;;47.78;12.84;97528.03;10446667;28;20119;-66
2023/09/13 08:48:18;;;;;;;5.32;3.83;;;;;;;41.91;18.71;97520.72;10446793;28;20495;-66
2023/09/13 08:53:40;;;;;;;6.85;4.00;;;;;;;49.76;14.44;97519.69;10445971;28;20115;-68
2023/09/13 08:59:01;;;;;;;5.78;2.63;;;;;;;55.39;9.39;97511.38;10460956;28;20111;-69
2023/09/13 09:04:22;;;;;;;5.05;2.17;;;;;;;55.55;9.22;97521.38;10460608;28;20080;-68
2023/09/13 09:09:45;;;;;;;6.88;2.95;;;;;;;49.67;11.63;97499.00;10460366;28;20076;-68
2023/09/13 09:15:07;;;;;;;4.47;2.33;;;;;;;48.16;12.99;97506.19;10460250;28;20053;-67
2023/09/13 09:20:29;;;;;;;5.15;1.70;;;;;;;52.73;10.98;97513.25;10460643;28;20423;-68
2023/09/13 09:25:50;;;;;;;3.92;1.83;;;;;;;54.31;9.48;97509.78;10431618;28;20045;-67
2023/09/13 09:31:12;;;;;;;5.22;1.60;;;;;;;58.79;7.14;97513.19;10443379;28;20494;-68
2023/09/13 09:36:41;;;;;;;2.70;1.73;;;;;;;59.34;5.76;97508.03;10459589;28;20052;-68
2023/09/13 09:42:02;;;;;;;8.45;1.90;;;;;;;55.06;7.72;97509.28;10459608;28;20064;-68
2023/09/13 09:47:24;;;;;;;4.13;1.60;;;;;;;58.83;6.21;97511.94;10459197;28;20053;-68
2023/09/13 09:52:49;;;;;;;4.55;1.88;;;;;;;58.64;5.53;97534.75;10459096;28;20080;-68
2023/09/13 09:58:11;;;;;;;2.70;1.70;;;;;;;52.82;8.67;97534.63;10458823;28;20045;-67
2023/09/13 10:03:34;;;;;;;5.28;1.70;;;;;;;53.71;8.29;97538.28;10458162;28;20495;-67
2023/09/13 10:08:55;;;;;;;5.40;1.55;;;;;;;49.96;9.41;97544.41;10458259;28;20498;-67
2023/09/13 10:14:26;;;;;;;3.88;1.40;;;;;;;43.74;12.89;97555.72;10458071;28;20086;-66
2023/09/13 10:19:48;;;;;;;4.07;1.92;;;;;;;38.84;15.84;97559.50;10457762;28;20045;-66
2023/09/13 10:25:11;;;;;;;6.57;2.65;;;;;;;35.56;19.42;97576.00;10457653;28;20049;-67
2023/09/13 10:30:32;;;;;;;4.75;3.15;;;;;;;33.04;23.55;97577.63;10429112;28;20053;-66
2023/09/13 10:35:54;;;;;;;6.10;3.80;;;;;;;31.52;26.11;97579.34;10442349;28;20407;-66
2023/09/13 10:41:17;;;;;;;5.25;4.03;;;;;;;30.82;27.98;97581.25;10428804;28;20057;-66
2023/09/13 10:46:38;;;;;;;10.30;4.30;;;;;;;30.75;28.25;97589.28;10457015;28;20056;-65
2023/09/13 10:51:59;;;;;;;4.75;4.28;;;;;;;31.04;30.04;97581.59;10441709;28;20152;-63
2023/09/13 10:57:19;;;;;;;9.30;4.25;;;;;;;31.24;29.79;97591.38;10456931;28;20073;-63
2023/09/13 11:02:42;;;;;;;7.88;4.90;;;;;;;30.57;30.96;97587.34;10441538;28;20126;-63
2023/09/13 11:08:05;;;;;;;6.55;4.68;;;;;;;30.28;32.05;97597.81;10428204;28;20049;-63
2023/09/13 11:13:30;;;;;;;6.00;4.93;;;;;;;30.03;33.73;97601.00;10441244;28;20053;-63
2023/09/13 11:18:52;;;;;;;9.98;4.70;;;;;;;29.73;34.13;97590.56;10456520;28;20048;-63
2023/09/13 11:24:13;;;;;;;7.07;3.92;;;;;;;29.21;35.20;97597.50;10456366;28;20053;-63
2023/09/13 11:29:51;;;;;;;6.25;4.00;;;;;;;28.79;36.95;97593.50;10456029;28;20049;-62
2023/09/13 11:35:13;;;;;;;6.80;4.10;;;;;;;29.21;37.40;97606.13;10427415;28;20049;-63
2023/09/13 11:40:34;;;;;;;4.00;3.50;;;;;;;30.45;36.07;97602.63;10455927;28;20139;-63
2023/09/13 11:45:56;;;;;;;5.90;3.47;;;;;;;30.44;35.15;97617.78;10427236;28;20068;-63
2023/09/13 11:51:17;;;;;;;;;;;;;;;29.98;36.09;97605.34;10441432;28;20068;-63
2023/09/13 11:56:45;;;;;;;5.95;3.30;;;;;;;30.00;35.82;97607.50;10446779;28;19928;-63
2023/09/13 12:02:11;;;;;;;5.60;3.50;;;;;;;29.52;36.72;97606.56;10462994;28;20048;-63
2023/09/13 12:07:35;;;;;;;4.82;3.13;;;;;;;29.17;37.56;97612.63;10448574;28;20049;-63
2023/09/13 12:12:59;;;;;;;10.77;2.72;;;;;;;29.00;37.78;97606.28;10434407;28;20065;-63
2023/09/13 12:18:38;;;;;;;5.80;2.67;;;;;;;29.18;37.86;97596.81;10450503;28;20041;-63
2023/09/13 12:23:59;;;;;;;3.42;2.33;;;;;;;29.56;36.58;97604.38;10447147;28;20106;-63
2023/09/13 12:29:24;;;;;;;4.03;2.38;;;;;;;29.60;35.69;97609.38;10462107;28;20565;-63
2023/09/13 12:34:44;;;;;;;5.03;1.60;;;;;;;29.54;34.57;97601.53;10462121;28;20130;-63
2023/09/13 12:40:14;;;;;;;3.38;1.42;;;;;;;29.25;34.50;97595.31;10461944;28;20067;-63
2023/09/13 12:45:36;;;;;;;4.03;1.88;;;;;;;29.32;34.04;97598.84;10461892;28;20048;-63
2023/09/13 12:50:58;;;;;;;2.83;1.55;;;;;;;29.50;34.07;97600.84;10461273;28;20057;-63
2023/09/13 12:56:19;;;;;;;4.30;1.58;;;;;;;29.70;34.16;97591.28;10461386;28;20044;-63
2023/09/13 13:01:41;;;;;;;4.90;2.20;;;;;;;29.65;34.01;97602.13;10461095;28;20056;-63
2023/09/13 13:07:03;;;;;;;;;;;;;;;29.50;34.18;97595.09;10461252;28;20053;-63
2023/09/13 13:12:24;;;;;;;;;;;;;;;29.50;34.40;97595.09;10461147;28;19920;-63
2023/09/13 13:17:46;;;;;;;3.92;2.03;;;;;;;29.68;34.05;97585.56;10460451;28;20401;-63
2023/09/13 13:23:07;;;;;;;;;;;;;;;29.14;34.52;97591.06;10446132;28;20049;-63
2023/09/13 13:28:28;;;;;;;4.00;2.40;;;;;;;29.17;34.84;97588.91;10459938;28;19928;-63
2023/09/13 13:33:49;;;;;;;6.20;2.30;;;;;;;28.89;35.12;97569.75;10459782;28;20111;-63
2023/09/13 13:39:15;;;;;;;5.17;2.50;;;;;;;28.50;35.50;97561.41;10459509;28;20068;-63
2023/09/13 13:44:37;;;;;;;5.40;2.30;;;;;;;28.15;36.07;97557.97;10445020;28;20059;-63
2023/09/13 13:49:59;;;;;;;5.68;2.15;;;;;;;27.52;37.09;97567.50;10459102;28;20044;-63
2023/09/13 13:55:20;;;;;;;5.50;2.30;;;;;;;27.06;37.92;97569.00;10443685;28;20048;-63
2023/09/13 14:00:40;;;;;;;3.10;2.20;;;;;;;26.67;38.68;97571.13;10458274;28;20045;-62
2023/09/13 14:06:03;;;;;;;6.82;1.90;;;;;;;26.50;39.41;97570.38;10443254;28;20049;-63
2023/09/13 14:11:24;;;;;;;4.35;2.47;;;;;;;26.63;39.36;97570.38;10443571;28;20052;-63
2023/09/13 14:16:48;;;;;;;3.28;1.85;;;;;;;26.60;39.73;97566.09;10457622;28;20068;-62
2023/09/13 14:22:10;;;;;;;5.60;1.90;;;;;;;26.43;39.60;97571.78;10457757;28;20458;-62
2023/09/13 14:27:30;;;;;;;5.15;2.08;;;;;;;26.16;40.27;97578.84;10457896;28;20104;-63
2023/09/13 14:33:16;;;;;;;6.93;2.17;;;;;;;25.90;40.52;97576.59;10457396;28;20064;-63
2023/09/13 14:38:37;;;;;;;3.88;2.10;;;;;;;25.76;40.65;97587.94;10429303;28;20076;-63
2023/09/13 14:43:58;;;;;;;5.07;2.13;;;;;;;25.68;41.02;97580.03;10457479;28;20072;-63
2023/09/13 14:49:19;;;;;;;4.00;1.70;;;;;;;25.71;41.04;97584.38;10456803;28;20406;-62
2023/09/13 14:54:40;;;;;;;4.78;1.40;;;;;;;25.64;41.02;97585.72;10456740;28;20065;-63
2023/09/13 15:00:03;;;;;;;3.10;1.65;;;;;;;25.62;41.55;97589.28;10456642;28;20072;-62
2023/09/13 15:05:24;;;;;;;5.15;1.67;;;;;;;25.65;41.43;97598.59;10428669;28;20077;-62
2023/09/13 15:10:45;;;;;;;3.28;1.50;;;;;;;25.77;41.17;97604.41;10456333;28;20072;-62
2023/09/13 15:16:07;;;;;;;2.30;1.50;;;;;;;25.80;41.21;97597.28;10441707;28;20067;-63
2023/09/13 15:21:28;;;;;;;5.97;1.90;;;;;;;25.59;41.23;97607.16;10456455;28;20052;-62
2023/09/13 15:26:49;;;;;;;4.40;1.42;;;;;;;25.32;41.96;97614.81;10427265;28;20088;-62
2023/09/13 15:32:11;;;;;;;2.15;1.38;;;;;;;24.94;43.17;97615.19;10462526;28;20132;-63
2023/09/13 15:37:32;;;;;;;2.10;1.60;;;;;;;24.63;44.11;97622.75;10464501;28;20056;-62
2023/09/13 15:42:56;;;;;;;3.97;1.20;;;;;;;24.45;44.98;97624.00;10464221;28;20175;-62
2023/09/13 15:48:17;;;;;;;4.53;1.60;;;;;;;24.28;45.50;97617.38;10463606;28;20499;-62
2023/09/13 15:53:39;;;;;;;3.15;1.63;;;;;;;24.22;46.18;97620.16;10448835;28;20547;-62
2023/09/13 15:59:00;;;;;;;2.30;1.70;;;;;;;24.16;46.50;97622.94;10463631;28;20121;-63
2023/09/13 16:04:20;;;;;;;3.55;2.38;;;;;;;24.11;47.08;97621.44;10463003;28;20056;-62
2023/09/13 16:09:41;;;;;;;3.20;1.85;;;;;;;24.05;47.48;97618.53;10463242;28;20118;-62
2023/09/13 16:15:03;;;;;;;2.90;1.48;;;;;;;24.08;47.91;97622.09;10447936;28;20057;-62
2023/09/13 16:20:24;;;;;;;4.13;1.70;;;;;;;23.98;48.10;97631.25;10462627;28;20099;-62
2023/09/13 16:25:45;;;;;;;2.03;1.73;;;;;;;23.76;48.56;97633.81;10462596;28;20122;-62
2023/09/13 16:31:06;;;;;;;3.72;1.70;;;;;;;23.56;49.21;97637.78;10462614;28;20076;-62
2023/09/13 16:36:27;;;;;;;4.53;1.95;;;;;;;23.40;50.00;97637.53;10462081;28;20045;-62
2023/09/13 16:41:47;;;;;;;5.05;1.85;;;;;;;23.27;50.16;97633.78;10461565;28;20167;-62
2023/09/13 16:47:10;;;;;;;2.08;1.65;;;;;;;23.13;50.71;97639.97;10461654;28;20048;-62
2023/09/13 16:52:31;;;;;;;4.85;2.33;;;;;;;23.01;51.04;97642.63;10461546;28;20037;-62
2023/09/13 16:57:52;;;;;;;8.50;4.72;;;;;;;22.87;51.49;97644.47;10461317;28;20075;-62
2023/09/13 17:03:13;;;;;;;7.82;2.80;;;;;;;22.72;51.78;97649.19;10432136;28;20111;-62
2023/09/13 17:08:35;;;;;;;7.00;3.17;;;;;;;22.57;52.18;97654.59;10460927;28;20057;-62
2023/09/13 17:13:57;;;;;;;8.02;3.42;;;;;;;22.45;52.35;97665.75;10445438;28;20092;-62
2023/09/13 17:19:18;;;;;;;7.88;2.28;;;;;;;22.32;52.79;97678.28;10460549;28;20091;-62
2023/09/13 17:24:39;;;;;;;6.07;2.00;;;;;;;22.23;53.49;97674.56;10460516;28;20087;-62
2023/09/13 17:30:00;;;;;;;4.25;2.17;;;;;;;22.16;53.87;97677.94;10460118;28;20049;-62
2023/09/13 17:35:21;;;;;;;3.67;1.95;;;;;;;22.08;53.56;97678.50;10460034;28;20040;-62
2023/09/13 17:40:42;;;;;;;5.88;2.15;;;;;;;22.02;53.83;97689.72;10431026;28;20065;-62
2023/09/13 17:46:03;;;;;;;3.83;1.80;;;;;;;22.05;53.90;97696.16;10459563;28;20053;-62
2023/09/13 17:51:24;;;;;;;5.88;2.22;;;;;;;22.00;53.40;97715.97;10458194;28;20072;-62
2023/09/13 17:56:45;;;;;;;2.88;2.00;;;;;;;22.03;53.42;97711.06;10459032;28;20080;-62
2023/09/13 18:02:08;;;;;;;3.53;2.20;;;;;;;22.05;53.66;97722.47;10444106;28;20103;-62
2023/09/13 18:07:31;;;;;;;3.35;2.17;;;;;;;22.02;53.20;97728.78;10458514;28;20129;-62
2023/09/13 18:12:54;;;;;;;3.40;2.20;;;;;;;22.05;52.98;97735.94;10458517;28;20136;-62
2023/09/13 18:18:15;;;;;;;3.47;2.53;;;;;;;21.97;53.11;97739.31;10458211;28;20128;-62
2023/09/13 18:23:35;;;;;;;3.40;2.08;;;;;;;21.96;52.79;97738.59;10457960;28;20075;-62
2023/09/13 18:28:56;;;;;;;4.05;2.33;;;;;;;21.93;52.69;97744.94;10457884;28;20468;-62
2023/09/13 18:34:17;;;;;;;6.75;2.65;;;;;;;21.92;52.61;97744.22;10442672;28;20064;-62
2023/09/13 18:39:38;;;;;;;3.25;1.88;;;;;;;21.95;52.79;97754.22;10457653;28;20122;-62
2023/09/13 18:44:59;;;;;;;4.55;2.20;;;;;;;21.95;52.83;97759.91;10457178;28;20077;-62
2023/09/13 18:50:19;;;;;;;4.10;2.47;;;;;;;21.94;52.74;97769.81;10457106;28;20072;-62
2023/09/13 18:55:40;;;;;;;4.20;2.38;;;;;;;21.96;52.58;97772.72;10456632;28;20136;-62
2023/09/13 19:01:01;;;;;;;3.83;2.30;;;;;;;21.94;52.92;97774.78;10442009;28;20179;-62
2023/09/13 19:06:22;;;;;;;4.03;2.42;;;;;;;21.93;52.81;97776.91;10456174;28;20049;-62
2023/09/13 19:11:43;;;;;;;3.08;2.40;;;;;;;21.88;52.88;97783.16;10456687;28;20538;-62
2023/09/13 19:17:04;;;;;;;3.55;2.15;;;;;;;21.88;52.76;97783.16;10456809;28;20068;-62
2023/09/13 19:22:25;;;;;;;6.55;2.40;;;;;;;21.86;52.75;97792.34;10456400;28;20079;-62
2023/09/13 19:27:46;;;;;;;4.22;2.80;;;;;;;21.80;53.19;97786.53;10456354;28;20444;-62
2023/09/13 19:33:08;;;;;;;3.67;2.70;;;;;;;21.76;53.19;97794.25;10456086;28;20121;-62
2023/09/13 19:38:30;;;;;;;3.23;2.53;;;;;;;21.67;53.16;97804.69;10441535;28;20077;-62
2023/09/13 19:43:50;;;;;;;3.80;2.67;;;;;;;21.66;53.45;97808.91;10455980;28;20125;-62
2023/09/13 19:49:11;;;;;;;5.03;2.88;;;;;;;21.64;53.30;97811.72;10455993;28;20417;-62
2023/09/13 19:54:33;;;;;;;5.30;3.05;;;;;;;21.60;53.75;97822.94;10455843;28;20470;-62
2023/09/13 19:59:54;;;;;;;4.43;2.78;;;;;;;21.61;53.80;97818.72;10427474;28;20137;-62
2023/09/13 20:05:14;;;;;;;3.47;2.70;;;;;;;21.56;53.79;97822.84;10455369;28;20126;-62
2023/09/13 20:10:35;;;;;;;5.20;2.67;;;;;;;21.51;53.69;97824.84;10455422;28;20076;-62
2023/09/13 20:15:56;;;;;;;4.45;2.90;;;;;;;21.44;54.30;97823.28;10457702;28;20172;-62
2023/09/13 20:21:17;;;;;;;3.28;2.70;;;;;;;21.40;54.46;97832.38;10462925;28;20072;-62
2023/09/13 20:26:38;;;;;;;3.83;2.95;;;;;;;21.32;54.56;97822.94;10462786;28;20124;-62
2023/09/13 20:31:59;;;;;;;6.03;2.70;;;;;;;21.18;54.53;97831.78;10447778;28;20076;-62
2023/09/13 20:37:19;;;;;;;6.97;3.28;;;;;;;21.02;54.90;97839.84;10462331;28;20065;-62
2023/09/13 20:42:40;;;;;;;3.80;2.90;;;;;;;20.91;55.31;97843.78;10410913;28;20152;-64
2023/09/13 20:48:03;;;;;;;5.22;3.28;;;;;;;20.85;55.30;97847.91;10454086;28;20049;-63
2023/09/13 20:53:23;;;;;;;5.70;2.70;;;;;;;20.77;55.63;97846.94;10451539;28;20041;-62
2023/09/13 20:58:44;;;;;;;4.25;3.00;;;;;;;20.74;55.89;97854.66;10442949;28;20123;-63
2023/09/13 21:04:05;;;;;;;4.35;2.92;;;;;;;20.78;56.11;97859.72;10459399;28;20107;-63
2023/09/13 21:09:27;;;;;;;3.70;3.05;;;;;;;20.85;56.04;97867.75;10459900;28;20133;-62
2023/09/13 21:14:50;;;;;;;5.37;2.87;;;;;;;20.92;56.61;97873.59;10445284;28;20052;-63
2023/09/13 21:20:12;;;;;;;4.63;2.93;;;;;;;20.97;56.60;97878.00;10441915;28;20143;-62
2023/09/13 21:25:34;;;;;;;4.47;3.10;;;;;;;20.98;56.97;97882.28;10441355;28;20410;-63
2023/09/13 21:30:56;;;;;;;;;;;;;;;20.99;57.04;97889.41;10418021;28;20276;-66
2023/09/13 21:36:17;;;;;;;4.30;3.10;;;;;;;21.04;56.48;97891.00;10402628;28;19948;-66
2023/09/13 21:41:38;;;;;;;5.70;3.17;;;;;;;21.05;56.65;97895.28;10417655;28;20148;-63
2023/09/13 21:46:58;;;;;;;5.20;3.08;;;;;;;21.07;56.80;97896.03;10438101;28;20056;-62
2023/09/13 21:52:20;;;;;;;4.65;3.05;;;;;;;21.03;56.92;97898.75;10458147;28;20128;-63
2023/09/13 21:57:41;;;;;;;5.53;3.35;;;;;;;21.01;57.12;97892.31;10443558;28;20144;-62
2023/09/13 22:03:01;;;;;;;4.70;2.97;;;;;;;20.97;57.46;97886.53;10453163;28;20049;-62
2023/09/13 22:08:22;;;;;;;6.28;2.70;;;;;;;20.99;57.72;97898.66;10430660;28;20049;-63
2023/09/13 22:13:44;;;;;;;5.93;2.83;;;;;;;20.96;57.48;97902.81;10444670;28;20758;-63
2023/09/13 22:19:05;;;;;;;4.97;2.88;;;;;;;20.91;57.57;97903.34;10452069;28;20049;-63
2023/09/13 22:24:27;;;;;;;3.65;2.97;;;;;;;20.85;58.05;97898.25;10446244;28;20119;-63
2023/09/13 22:29:49;;;;;;;4.13;3.17;;;;;;;20.80;58.02;97903.06;10450676;28;20467;-62
2023/09/13 22:35:10;;;;;;;6.32;3.60;;;;;;;20.76;58.22;97905.78;10432095;28;20072;-62
2023/09/13 22:40:33;;;;;;;4.00;3.13;;;;;;;20.73;58.53;97921.28;10440499;28;20538;-63
2023/09/13 22:45:54;;;;;;;4.57;2.35;;;;;;;20.66;58.76;97914.00;10455039;28;20133;-68
2023/09/13 22:51:15;;;;;;;4.35;2.78;;;;;;;20.57;58.91;97920.78;10400257;28;20117;-63
2023/09/13 22:56:35;;;;;;;4.15;3.25;;;;;;;20.62;58.99;97932.97;10446709;28;20178;-63
2023/09/13 23:01:56;;;;;;;5.30;2.95;;;;;;;20.71;58.71;97932.56;10448992;28;20091;-62
2023/09/13 23:07:18;;;;;;;4.93;3.22;;;;;;;20.67;58.97;97940.97;10406947;28;20141;-62
2023/09/13 23:12:38;;;;;;;3.92;3.20;;;;;;;20.66;59.33;97950.84;10408902;28;20175;-62
2023/09/13 23:18:00;;;;;;;3.85;2.50;;;;;;;20.52;60.11;97939.78;10410181;28;20464;-61
2023/09/13 23:23:21;;;;;;;6.57;2.90;;;;;;;20.49;60.31;97948.91;10411334;28;20096;-63
2023/09/13 23:28:43;;;;;;;4.00;3.00;;;;;;;20.34;60.81;97932.78;10414290;28;20120;-61
2023/09/13 23:34:07;;;;;;;4.82;2.90;;;;;;;20.23;61.41;97935.28;10391860;28;20125;-62
2023/09/13 23:39:30;;;;;;;3.60;3.03;;;;;;;20.08;61.56;97946.81;10382032;28;20494;-62
2023/09/13 23:44:52;;;;;;;2.80;2.28;;;;;;;20.01;62.91;97946.63;10400882;28;20125;-62
2023/09/13 23:50:14;;;;;;;3.10;2.50;;;;;;;20.06;63.13;97961.63;10403923;28;20111;-62
2023/09/13 23:55:35;;;;;;;3.10;2.30;;;;;;;20.08;63.48;97958.16;10420576;28;20511;-61
